createdAt,value
2017-07-27T00:00:19.012Z,82.52
2017-07-27T00:01:14.167Z,82.62
2017-07-27T00:02:13.865Z,82.32
2017-07-27T00:03:14.166Z,82.81
2017-07-27T00:04:14.168Z,82.9
2017-07-27T00:05:14.721Z,83.09
2017-07-27T00:06:14.171Z,82.96
2017-07-27T00:07:14.176Z,82.96
2017-07-27T00:08:14.180Z,83.53
2017-07-27T00:09:14.170Z,83.63
2017-07-27T00:10:15.779Z,83.53
2017-07-27T00:11:14.184Z,83.82
2017-07-27T00:12:13.870Z,83.72
2017-07-27T00:13:13.875Z,85.06
2017-07-27T00:14:14.181Z,84.97
2017-07-27T00:15:15.545Z,85.06
2017-07-27T00:16:13.869Z,85.06
2017-07-27T00:17:14.174Z,85.35
2017-07-27T00:18:14.179Z,84.58
2017-07-27T00:19:14.176Z,85.06
2017-07-27T00:20:15.888Z,84.97
2017-07-27T00:21:14.180Z,85.06
2017-07-27T00:22:13.879Z,85.35
2017-07-27T00:23:14.181Z,85.25
2017-07-27T00:24:14.177Z,85.93
2017-07-27T00:25:15.894Z,86.12
2017-07-27T00:26:14.188Z,85.64
2017-07-27T00:27:13.878Z,86.02
2017-07-27T00:28:14.183Z,86.5
2017-07-27T00:29:14.180Z,86.5
2017-07-27T00:30:15.573Z,86.21
2017-07-27T00:31:14.193Z,86.31
2017-07-27T00:32:14.181Z,86.41
2017-07-27T00:33:13.881Z,86.31
2017-07-27T00:34:13.882Z,86.5
2017-07-27T00:35:15.769Z,86.21
2017-07-27T00:36:14.182Z,86.31
2017-07-27T00:37:14.184Z,86.21
2017-07-27T00:38:14.187Z,86.5
2017-07-27T00:39:13.887Z,86.21
2017-07-27T00:40:15.101Z,86.41
2017-07-27T00:41:13.897Z,86.41
2017-07-27T00:42:13.887Z,86.31
2017-07-27T00:43:14.189Z,86.5
2017-07-27T00:44:13.885Z,86.41
2017-07-27T00:45:15.158Z,86.5
2017-07-27T00:46:14.188Z,86.41
2017-07-27T00:47:14.194Z,86.41
2017-07-27T00:48:13.890Z,86.5
2017-07-27T00:49:13.899Z,86.21
2017-07-27T00:50:15.301Z,86.6
2017-07-27T00:51:14.194Z,86.6
2017-07-27T00:52:13.892Z,86.31
2017-07-27T00:53:13.897Z,85.64
2017-07-27T00:54:13.892Z,85.35
2017-07-27T00:55:15.359Z,84.88
2017-07-27T00:56:14.199Z,85.64
2017-07-27T00:57:13.896Z,84.78
2017-07-27T00:58:13.894Z,84.97
2017-07-27T00:59:14.199Z,84.39
2017-07-27T01:00:15.585Z,84.53
2017-07-27T01:01:16.007Z,84.05
2017-07-27T01:02:13.900Z,84.53
2017-07-27T01:03:13.901Z,84.53
2017-07-27T01:04:13.898Z,84.53
2017-07-27T01:05:15.514Z,85.01
2017-07-27T01:06:13.903Z,84.39
2017-07-27T01:07:14.208Z,84.53
2017-07-27T01:08:13.909Z,84.72
2017-07-27T01:09:13.906Z,85.11
2017-07-27T01:10:15.380Z,85.3
2017-07-27T01:11:14.209Z,84.68
2017-07-27T01:12:13.908Z,85.93
2017-07-27T01:13:14.214Z,85.93
2017-07-27T01:14:13.911Z,85.54
2017-07-27T01:15:15.241Z,85.54
2017-07-27T01:16:14.628Z,85.74
2017-07-27T01:17:14.219Z,86.69
2017-07-27T01:18:14.224Z,86.21
2017-07-27T01:19:14.230Z,86.21
2017-07-27T01:20:15.156Z,86.31
2017-07-27T01:21:14.227Z,86.21
2017-07-27T01:22:14.227Z,85.83
2017-07-27T01:23:14.224Z,86.6
2017-07-27T01:24:14.225Z,86.69
2017-07-27T01:25:15.214Z,86.12
2017-07-27T01:26:13.939Z,86.41
2017-07-27T01:27:14.228Z,86.21
2017-07-27T01:28:14.224Z,86.12
2017-07-27T01:29:14.231Z,85.64
2017-07-27T01:30:15.490Z,85.64
2017-07-27T01:31:14.280Z,85.74
2017-07-27T01:32:14.231Z,84.78
2017-07-27T01:33:14.229Z,85.25
2017-07-27T01:34:14.244Z,84.88
2017-07-27T01:35:15.442Z,84.78
2017-07-27T01:36:14.239Z,85.35
2017-07-27T01:37:14.235Z,85.3
2017-07-27T01:38:14.236Z,85.06
2017-07-27T01:39:13.935Z,84.82
2017-07-27T01:40:15.628Z,84.82
2017-07-27T01:41:14.238Z,85.21
2017-07-27T01:42:14.240Z,85.11
2017-07-27T01:43:14.245Z,85.16
2017-07-27T01:44:13.942Z,85.68
2017-07-27T01:45:15.193Z,85.58
2017-07-27T01:46:16.697Z,84.91
2017-07-27T01:47:14.243Z,85.97
2017-07-27T01:48:13.944Z,85.93
2017-07-27T01:49:14.245Z,86.21
2017-07-27T01:50:15.691Z,85.64
2017-07-27T01:51:14.245Z,85.74
2017-07-27T01:52:14.247Z,85.74
2017-07-27T01:53:14.249Z,85.93
2017-07-27T01:54:14.276Z,85.25
2017-07-27T01:55:15.408Z,85.83
2017-07-27T01:56:14.322Z,85.06
2017-07-27T01:57:13.950Z,85.35
2017-07-27T01:58:14.252Z,85.64
2017-07-27T01:59:14.253Z,85.58
2017-07-27T02:00:15.706Z,85.01
2017-07-27T02:01:13.953Z,85.54
2017-07-27T02:02:14.259Z,85.01
2017-07-27T02:03:14.259Z,85.25
2017-07-27T02:04:13.963Z,85.64
2017-07-27T02:05:15.622Z,85.16
2017-07-27T02:06:14.261Z,85.25
2017-07-27T02:07:14.262Z,85.06
2017-07-27T02:08:14.264Z,85.39
2017-07-27T02:09:14.263Z,85.35
2017-07-27T02:10:15.686Z,84.91
2017-07-27T02:11:14.268Z,85.11
2017-07-27T02:12:13.968Z,85.49
2017-07-27T02:13:14.271Z,84.91
2017-07-27T02:14:14.274Z,85.25
2017-07-27T02:15:15.671Z,85.21
2017-07-27T02:16:14.275Z,85.21
2017-07-27T02:17:13.974Z,85.21
2017-07-27T02:18:14.271Z,84.91
2017-07-27T02:19:14.274Z,85.11
2017-07-27T02:20:15.890Z,85.3
2017-07-27T02:21:14.272Z,84.72
2017-07-27T02:22:14.276Z,84.82
2017-07-27T02:23:14.276Z,85.3
2017-07-27T02:24:14.276Z,85.39
2017-07-27T02:25:15.557Z,85.06
2017-07-27T02:26:14.279Z,85.39
2017-07-27T02:27:14.282Z,85.3
2017-07-27T02:28:14.298Z,85.39
2017-07-27T02:29:14.281Z,85.3
2017-07-27T02:30:15.655Z,85.11
2017-07-27T02:31:13.980Z,85.39
2017-07-27T02:32:13.988Z,85.01
2017-07-27T02:33:14.283Z,85.49
2017-07-27T02:34:14.334Z,85.21
2017-07-27T02:35:15.074Z,85.74
2017-07-27T02:36:14.298Z,85.74
2017-07-27T02:37:14.291Z,85.25
2017-07-27T02:38:14.292Z,85.35
2017-07-27T02:39:14.294Z,85.3
2017-07-27T02:40:15.730Z,85.39
2017-07-27T02:41:14.296Z,85.74
2017-07-27T02:42:14.300Z,85.54
2017-07-27T02:43:14.295Z,85.54
2017-07-27T02:44:14.299Z,85.93
2017-07-27T02:45:15.833Z,85.83
2017-07-27T02:46:14.299Z,85.54
2017-07-27T02:47:14.316Z,85.54
2017-07-27T02:48:14.300Z,86.31
2017-07-27T02:49:14.307Z,86.41
2017-07-27T02:50:14.892Z,86.41
2017-07-27T02:51:14.302Z,86.31
2017-07-27T02:52:14.308Z,86.5
2017-07-27T02:53:13.997Z,86.41
2017-07-27T02:54:14.304Z,85.93
2017-07-27T02:55:15.963Z,85.54
2017-07-27T02:56:14.301Z,85.54
2017-07-27T02:57:14.310Z,85.74
2017-07-27T02:58:14.309Z,85.74
2017-07-27T02:59:14.313Z,85.93
2017-07-27T03:00:15.291Z,85.93
2017-07-27T03:01:14.306Z,86.12
2017-07-27T03:02:14.305Z,86.31
2017-07-27T03:03:14.308Z,86.02
2017-07-27T03:04:14.306Z,86.31
2017-07-27T03:05:15.868Z,86.21
2017-07-27T03:06:14.310Z,86.31
2017-07-27T03:07:14.016Z,86.69
2017-07-27T03:08:14.311Z,86.21
2017-07-27T03:09:14.317Z,86.41
2017-07-27T03:10:15.394Z,85.93
2017-07-27T03:11:14.312Z,86.41
2017-07-27T03:12:14.019Z,86.41
2017-07-27T03:13:14.316Z,86.69
2017-07-27T03:14:14.317Z,86.69
2017-07-27T03:15:14.916Z,86.5
2017-07-27T03:16:14.323Z,86.12
2017-07-27T03:17:14.319Z,86.69
2017-07-27T03:18:14.322Z,86.31
2017-07-27T03:19:14.320Z,86.5
2017-07-27T03:20:15.309Z,86.31
2017-07-27T03:21:14.330Z,86.41
2017-07-27T03:22:14.328Z,86.41
2017-07-27T03:23:14.326Z,86.5
2017-07-27T03:24:14.323Z,86.69
2017-07-27T03:25:15.898Z,87.37
2017-07-27T03:26:14.326Z,86.98
2017-07-27T03:27:14.329Z,86.79
2017-07-27T03:28:14.329Z,87.08
2017-07-27T03:29:14.330Z,86.98
2017-07-27T03:30:15.785Z,86.79
2017-07-27T03:31:14.332Z,87.74
2017-07-27T03:32:14.331Z,87.65
2017-07-27T03:33:14.331Z,87.46
2017-07-27T03:34:14.332Z,87.94
2017-07-27T03:35:16.051Z,88.13
2017-07-27T03:36:14.333Z,88.03
2017-07-27T03:37:14.335Z,89.18
2017-07-27T03:38:14.334Z,89.09
2017-07-27T03:39:14.037Z,89.18
2017-07-27T03:40:15.723Z,89.37
2017-07-27T03:41:14.342Z,90.33
2017-07-27T03:42:14.343Z,90.62
2017-07-27T03:43:14.340Z,90.53
2017-07-27T03:44:14.343Z,91.19
2017-07-27T03:45:15.155Z,91.49
2017-07-27T03:46:14.349Z,91.58
2017-07-27T03:47:14.345Z,92.06
2017-07-27T03:48:14.050Z,92.15
2017-07-27T03:49:14.347Z,92.73
2017-07-27T03:50:15.872Z,92.82
2017-07-27T03:51:14.056Z,93.88
2017-07-27T03:52:14.350Z,93.78
2017-07-27T03:53:14.349Z,93.98
2017-07-27T03:54:14.352Z,95.22
2017-07-27T03:55:15.216Z,95.27
2017-07-27T03:56:14.350Z,95.46
2017-07-27T03:57:14.354Z,96.03
2017-07-27T03:58:14.360Z,96.13
2017-07-27T03:59:14.353Z,96.51
2017-07-27T04:00:15.988Z,96.8
2017-07-27T04:01:14.054Z,97.47
2017-07-27T04:02:14.111Z,96.61
2017-07-27T04:03:14.357Z,97.38
2017-07-27T04:04:14.359Z,97.95
2017-07-27T04:05:14.633Z,98.24
2017-07-27T04:06:14.361Z,99
2017-07-27T04:07:14.060Z,98.81
2017-07-27T04:08:14.358Z,99.29
2017-07-27T04:09:14.369Z,99.48
2017-07-27T04:10:15.324Z,99.29
2017-07-27T04:11:14.364Z,99.58
2017-07-27T04:12:14.363Z,99.58
2017-07-27T04:13:14.360Z,99.99
2017-07-27T04:14:14.360Z,99.58
2017-07-27T04:15:15.757Z,99.77
2017-07-27T04:16:14.067Z,99.99
2017-07-27T04:17:16.017Z,99.99
2017-07-27T04:18:14.363Z,99.58
2017-07-27T04:19:14.364Z,99.77
2017-07-27T04:20:15.201Z,99.48
2017-07-27T04:21:14.367Z,99.48
2017-07-27T04:22:14.363Z,99.77
2017-07-27T04:23:14.366Z,99.67
2017-07-27T04:24:14.366Z,99.58
2017-07-27T04:25:15.426Z,98.91
2017-07-27T04:26:14.368Z,99
2017-07-27T04:27:14.372Z,99.19
2017-07-27T04:28:14.365Z,98.86
2017-07-27T04:29:14.375Z,99.24
2017-07-27T04:30:15.117Z,98.43
2017-07-27T04:31:14.369Z,98.76
2017-07-27T04:32:14.439Z,98.67
2017-07-27T04:33:14.074Z,98.47
2017-07-27T04:34:14.077Z,98.67
2017-07-27T04:35:14.697Z,98
2017-07-27T04:36:14.377Z,98.1
2017-07-27T04:37:15.977Z,98.57
2017-07-27T04:38:14.377Z,98.47
2017-07-27T04:39:14.374Z,98.1
2017-07-27T04:40:15.576Z,98
2017-07-27T04:41:14.378Z,98.38
2017-07-27T04:42:14.392Z,98.38
2017-07-27T04:43:14.379Z,98.38
2017-07-27T04:44:14.397Z,98.28
2017-07-27T04:45:15.182Z,98.38
2017-07-27T04:46:14.381Z,98
2017-07-27T04:47:14.391Z,98.19
2017-07-27T04:48:14.387Z,97.04
2017-07-27T04:49:14.384Z,97.9
2017-07-27T04:50:15.127Z,97.76
2017-07-27T04:51:14.397Z,97.9
2017-07-27T04:52:14.394Z,98.1
2017-07-27T04:53:14.385Z,97.8
2017-07-27T04:54:14.394Z,98
2017-07-27T04:55:15.765Z,98.67
2017-07-27T04:56:14.394Z,98.19
2017-07-27T04:57:14.400Z,97.76
2017-07-27T04:58:14.393Z,98.24
2017-07-27T04:59:14.397Z,97.76
2017-07-27T05:00:14.810Z,98.43
2017-07-27T05:01:14.401Z,98.43
2017-07-27T05:02:14.400Z,98.38
2017-07-27T05:03:14.400Z,98.14
2017-07-27T05:04:14.405Z,98.24
2017-07-27T05:05:14.722Z,98.24
2017-07-27T05:06:14.097Z,98.62
2017-07-27T05:07:14.409Z,98.52
2017-07-27T05:08:14.109Z,98.24
2017-07-27T05:09:14.111Z,98.43
2017-07-27T05:10:15.375Z,97.09
2017-07-27T05:11:14.407Z,97.56
2017-07-27T05:12:14.110Z,97.18
2017-07-27T05:13:14.416Z,97.09
2017-07-27T05:14:14.417Z,97.18
2017-07-27T05:15:15.445Z,97.95
2017-07-27T05:16:14.420Z,97.28
2017-07-27T05:17:14.416Z,97.18
2017-07-27T05:18:14.117Z,97.28
2017-07-27T05:19:14.420Z,97.56
2017-07-27T05:20:15.215Z,97.85
2017-07-27T05:21:14.423Z,97.85
2017-07-27T05:22:14.130Z,97.85
2017-07-27T05:23:14.429Z,97.95
2017-07-27T05:24:14.427Z,97.76
2017-07-27T05:25:15.083Z,97.66
2017-07-27T05:26:14.433Z,97.18
2017-07-27T05:27:14.429Z,98.14
2017-07-27T05:28:14.131Z,97.28
2017-07-27T05:29:14.439Z,97.76
2017-07-27T05:30:15.766Z,97.18
2017-07-27T05:31:14.438Z,97.38
2017-07-27T05:32:14.441Z,97.85
2017-07-27T05:33:14.520Z,97.76
2017-07-27T05:34:14.136Z,97.42
2017-07-27T05:35:15.217Z,97.18
2017-07-27T05:36:14.443Z,98.1
2017-07-27T05:37:14.446Z,97.38
2017-07-27T05:38:14.444Z,97.42
2017-07-27T05:39:14.446Z,97.18
2017-07-27T05:40:15.398Z,97.85
2017-07-27T05:41:14.447Z,98
2017-07-27T05:42:14.452Z,98.24
2017-07-27T05:43:14.464Z,98.77
2017-07-27T05:44:14.453Z,98.33
2017-07-27T05:45:15.553Z,98.52
2017-07-27T05:46:14.455Z,99.19
2017-07-27T05:47:14.470Z,99.48
2017-07-27T05:48:15.259Z,99.68
2017-07-27T05:49:14.466Z,99.99
2017-07-27T05:50:15.103Z,99.99
2017-07-27T05:51:14.468Z,99.77
2017-07-27T05:52:14.162Z,99.39
2017-07-27T05:53:14.471Z,99.34
2017-07-27T05:54:14.469Z,99.44
2017-07-27T05:55:15.699Z,99.24
2017-07-27T05:56:14.470Z,99.44
2017-07-27T05:57:14.473Z,99.34
2017-07-27T05:58:14.476Z,98.48
2017-07-27T05:59:14.472Z,98.28
2017-07-27T06:00:15.208Z,98.48
2017-07-27T06:01:14.477Z,98.57
2017-07-27T06:02:14.493Z,98.67
2017-07-27T06:03:14.541Z,99.44
2017-07-27T06:04:14.191Z,99.34
2017-07-27T06:05:15.144Z,99.63
2017-07-27T06:06:14.194Z,99.73
2017-07-27T06:07:14.490Z,99.73
2017-07-27T06:08:14.190Z,99.99
2017-07-27T06:09:14.193Z,99.99
2017-07-27T06:10:15.492Z,99.99
2017-07-27T06:11:14.491Z,99.99
2017-07-27T06:12:14.194Z,99.99
2017-07-27T06:13:14.505Z,99.99
2017-07-27T06:14:14.498Z,99.99
2017-07-27T06:15:15.263Z,99.99
2017-07-27T06:16:14.198Z,99.99
2017-07-27T06:17:14.501Z,99.99
2017-07-27T06:18:15.505Z,99.99
2017-07-27T06:19:14.504Z,99.99
2017-07-27T06:20:15.279Z,99.99
2017-07-27T06:21:14.506Z,99.99
2017-07-27T06:22:14.509Z,99.99
2017-07-27T06:23:14.214Z,99.99
2017-07-27T06:24:14.512Z,99.99
2017-07-27T06:25:15.117Z,99.99
2017-07-27T06:26:14.514Z,99.99
2017-07-27T06:27:14.516Z,99.99
2017-07-27T06:28:14.219Z,99.99
2017-07-27T06:29:14.520Z,99.99
2017-07-27T06:30:15.431Z,99.99
2017-07-27T06:31:14.524Z,99.99
2017-07-27T06:32:14.545Z,99.99
2017-07-27T06:33:14.526Z,99.99
2017-07-27T06:34:14.526Z,99.99
2017-07-27T06:35:15.458Z,99.99
2017-07-27T06:36:14.532Z,99.99
2017-07-27T06:37:14.532Z,99.99
2017-07-27T06:38:14.533Z,99.99
2017-07-27T06:39:14.254Z,99.99
2017-07-27T06:40:15.526Z,99.99
2017-07-27T06:41:14.545Z,99.99
2017-07-27T06:42:14.549Z,99.99
2017-07-27T06:43:14.551Z,99.99
2017-07-27T06:44:14.251Z,99.99
2017-07-27T06:45:16.004Z,99.99
2017-07-27T06:46:15.319Z,99.99
2017-07-27T06:47:14.549Z,99.99
2017-07-27T06:48:14.551Z,99.99
2017-07-27T06:49:14.553Z,99.99
2017-07-27T06:50:14.916Z,99.99
2017-07-27T06:51:14.556Z,99.99
2017-07-27T06:52:14.556Z,99.99
2017-07-27T06:53:14.272Z,99.99
2017-07-27T06:54:14.563Z,99.99
2017-07-27T06:55:15.433Z,99.99
2017-07-27T06:56:14.569Z,99.99
2017-07-27T06:57:14.566Z,99.99
2017-07-27T06:58:14.570Z,99.99
2017-07-27T06:59:14.271Z,99.99
2017-07-27T07:00:15.526Z,99.99
2017-07-27T07:01:14.582Z,99.99
2017-07-27T07:02:14.578Z,99.99
2017-07-27T07:03:14.583Z,99.99
2017-07-27T07:04:14.590Z,99.99
2017-07-27T07:05:14.925Z,99.99
2017-07-27T07:06:14.584Z,99.99
2017-07-27T07:07:14.588Z,99.99
2017-07-27T07:08:14.591Z,99.99
2017-07-27T07:09:14.592Z,99.99
2017-07-27T07:10:15.958Z,99.99
2017-07-27T07:11:14.597Z,99.99
2017-07-27T07:12:14.597Z,99.99
2017-07-27T07:13:14.601Z,99.99
2017-07-27T07:14:14.602Z,99.99
2017-07-27T07:15:15.507Z,99.99
2017-07-27T07:16:14.615Z,99.99
2017-07-27T07:17:14.608Z,99.99
2017-07-27T07:18:14.320Z,99.99
2017-07-27T07:19:14.615Z,99.99
2017-07-27T07:20:15.746Z,99.99
2017-07-27T07:21:14.613Z,99.99
2017-07-27T07:22:14.329Z,99.99
2017-07-27T07:23:14.633Z,99.99
2017-07-27T07:24:14.633Z,99.99
2017-07-27T07:25:14.978Z,99.99
2017-07-27T07:26:14.645Z,99.99
2017-07-27T07:27:14.633Z,99.99
2017-07-27T07:28:14.639Z,99.99
2017-07-27T07:29:14.638Z,99.99
2017-07-27T07:30:15.186Z,99.99
2017-07-27T07:31:14.644Z,99.99
2017-07-27T07:32:14.638Z,99.99
2017-07-27T07:33:14.641Z,99.99
2017-07-27T07:34:14.694Z,99.99
2017-07-27T07:35:15.877Z,99.99
2017-07-27T07:36:14.653Z,99.99
2017-07-27T07:37:14.646Z,99.99
2017-07-27T07:38:14.657Z,99.99
2017-07-27T07:39:14.650Z,99.99
2017-07-27T07:40:15.391Z,99.99
2017-07-27T07:41:14.657Z,99.99
2017-07-27T07:42:14.658Z,99.99
2017-07-27T07:43:14.664Z,99.99
2017-07-27T07:44:14.665Z,99.99
2017-07-27T07:45:15.754Z,99.99
2017-07-27T07:46:14.667Z,99.99
2017-07-27T07:47:14.672Z,99.99
2017-07-27T07:48:14.675Z,99.99
2017-07-27T07:49:18.933Z,99.99
2017-07-27T07:50:15.442Z,99.99
2017-07-27T07:51:14.680Z,99.99
2017-07-27T07:52:14.378Z,99.99
2017-07-27T07:53:14.381Z,99.99
2017-07-27T07:54:14.699Z,99.99
2017-07-27T07:55:15.585Z,99.99
2017-07-27T07:56:14.711Z,99.99
2017-07-27T07:57:14.705Z,99.99
2017-07-27T07:58:14.708Z,99.99
2017-07-27T07:59:14.404Z,99.99
2017-07-27T08:00:15.318Z,99.99
2017-07-27T08:01:14.709Z,99.87
2017-07-27T08:02:14.712Z,99.4
2017-07-27T08:03:14.415Z,98.91
2017-07-27T08:04:14.714Z,99.99
2017-07-27T08:05:15.290Z,99.99
2017-07-27T08:06:14.739Z,99.49
2017-07-27T08:07:14.718Z,99.35
2017-07-27T08:08:14.724Z,99.06
2017-07-27T08:09:14.422Z,98.77
2017-07-27T08:10:15.077Z,98.58
2017-07-27T08:11:14.727Z,98.96
2017-07-27T08:12:14.730Z,99.25
2017-07-27T08:13:14.734Z,99.25
2017-07-27T08:14:14.738Z,98.29
2017-07-27T08:15:15.042Z,98.86
2017-07-27T08:16:14.744Z,98.19
2017-07-27T08:17:14.743Z,97.14
2017-07-27T08:18:14.756Z,98
2017-07-27T08:19:14.747Z,99.01
2017-07-27T08:20:15.657Z,98.63
2017-07-27T08:21:14.755Z,97.76
2017-07-27T08:22:14.757Z,97.38
2017-07-27T08:23:14.760Z,96.42
2017-07-27T08:24:14.472Z,95.36
2017-07-27T08:25:15.559Z,94.59
2017-07-27T08:26:14.768Z,95.45
2017-07-27T08:27:14.772Z,95.84
2017-07-27T08:28:14.781Z,95.65
2017-07-27T08:29:14.808Z,94.92
2017-07-27T08:30:16.224Z,94.83
2017-07-27T08:31:14.784Z,93.87
2017-07-27T08:32:14.799Z,93.77
2017-07-27T08:33:14.816Z,92.81
2017-07-27T08:34:14.492Z,93
2017-07-27T08:35:17.135Z,92.91
2017-07-27T08:36:14.800Z,93.19
2017-07-27T08:37:14.501Z,92.04
2017-07-27T08:38:14.814Z,92.61
2017-07-27T08:39:14.813Z,93.19
2017-07-27T08:40:15.705Z,93
2017-07-27T08:41:14.822Z,93.38
2017-07-27T08:42:14.820Z,93
2017-07-27T08:43:14.827Z,93
2017-07-27T08:44:14.825Z,93.1
2017-07-27T08:45:15.165Z,93.1
2017-07-27T08:46:14.864Z,93.96
2017-07-27T08:47:14.838Z,92.85
2017-07-27T08:48:14.847Z,92.38
2017-07-27T08:49:14.843Z,91.13
2017-07-27T08:50:14.991Z,90.83
2017-07-27T08:51:14.849Z,91.13
2017-07-27T08:52:14.866Z,90.83
2017-07-27T08:53:14.866Z,90.4
2017-07-27T08:54:14.879Z,89.53
2017-07-27T08:55:15.606Z,89
2017-07-27T08:56:14.570Z,88.81
2017-07-27T08:57:14.880Z,89
2017-07-27T08:58:14.574Z,88.04
2017-07-27T08:59:14.585Z,86.98
2017-07-27T09:00:15.932Z,87.26
2017-07-27T09:01:14.891Z,87.6
2017-07-27T09:02:14.893Z,86.54
2017-07-27T09:03:14.900Z,87.12
2017-07-27T09:04:14.905Z,85.86
2017-07-27T09:05:15.556Z,85.19
2017-07-27T09:06:14.909Z,85.23
2017-07-27T09:07:14.913Z,84.36
2017-07-27T09:08:14.619Z,84.36
2017-07-27T09:09:14.922Z,84.84
2017-07-27T09:10:15.572Z,84.84
2017-07-27T09:11:14.933Z,83.63
2017-07-27T09:12:14.936Z,84.31
2017-07-27T09:13:15.342Z,82.67
2017-07-27T09:14:15.857Z,81.8
2017-07-27T09:15:15.825Z,80.74
2017-07-27T09:16:14.956Z,81.22
2017-07-27T09:17:14.957Z,81.6
2017-07-27T09:18:14.660Z,82.18
2017-07-27T09:19:14.984Z,82.28
2017-07-27T09:20:15.310Z,81.7
2017-07-27T09:21:14.675Z,82.18
2017-07-27T09:22:14.987Z,83.05
2017-07-27T09:23:14.997Z,83.53
2017-07-27T09:24:14.992Z,85.17
2017-07-27T09:25:15.618Z,84.69
2017-07-27T09:26:15.003Z,84.31
2017-07-27T09:27:15.009Z,83.09
2017-07-27T09:28:15.011Z,83.67
2017-07-27T09:29:14.720Z,82.23
2017-07-27T09:30:15.334Z,81.93
2017-07-27T09:31:15.026Z,83.05
2017-07-27T09:32:15.037Z,82.76
2017-07-27T09:33:15.039Z,83.34
2017-07-27T09:34:15.057Z,83.92
2017-07-27T09:35:15.410Z,84.31
2017-07-27T09:36:14.801Z,85.08
2017-07-27T09:37:15.056Z,84.31
2017-07-27T09:38:15.056Z,83.92
2017-07-27T09:39:15.066Z,82.51
2017-07-27T09:40:15.735Z,82.61
2017-07-27T09:41:15.083Z,81.45
2017-07-27T09:42:15.078Z,82.13
2017-07-27T09:43:15.088Z,82.67
2017-07-27T09:44:14.785Z,83.44
2017-07-27T09:45:15.807Z,83.34
2017-07-27T09:46:14.797Z,82.76
2017-07-27T09:47:14.802Z,83.15
2017-07-27T09:48:15.107Z,82.86
2017-07-27T09:49:15.116Z,83.34
2017-07-27T09:50:16.036Z,83.15
2017-07-27T09:51:15.377Z,84.31
2017-07-27T09:52:15.127Z,84.94
2017-07-27T09:53:15.130Z,85.13
2017-07-27T09:54:15.142Z,86.68
2017-07-27T09:55:15.822Z,86.96
2017-07-27T09:56:15.144Z,86.58
2017-07-27T09:57:15.150Z,87.45
2017-07-27T09:58:15.175Z,86.29
2017-07-27T09:59:15.165Z,86.29
2017-07-27T10:00:16.617Z,86.48
2017-07-27T10:01:14.985Z,86.29
2017-07-27T10:02:14.885Z,87.54
2017-07-27T10:03:15.235Z,87.54
2017-07-27T10:04:16.003Z,86.77
2017-07-27T10:05:16.971Z,87.26
2017-07-27T10:06:17.746Z,86.48
2017-07-27T10:07:16.421Z,86.68
2017-07-27T10:08:15.981Z,85.71
2017-07-27T10:09:15.135Z,85.03
2017-07-27T10:10:16.401Z,85.85
2017-07-27T10:11:15.486Z,84.41
2017-07-27T10:12:15.243Z,83.15
2017-07-27T10:13:15.228Z,83.05
2017-07-27T10:14:15.232Z,82.18
2017-07-27T10:15:15.822Z,83.15
2017-07-27T10:16:15.241Z,82.81
2017-07-27T10:17:15.235Z,83.19
2017-07-27T10:18:14.949Z,83.09
2017-07-27T10:19:14.944Z,82.86
2017-07-27T10:20:15.984Z,83.34
2017-07-27T10:21:17.309Z,82.86
2017-07-27T10:22:14.955Z,81.9
2017-07-27T10:23:15.278Z,83.05
2017-07-27T10:24:15.268Z,82.09
2017-07-27T10:25:15.936Z,82.13
2017-07-27T10:26:15.278Z,80.97
2017-07-27T10:27:15.281Z,80.87
2017-07-27T10:28:15.284Z,80.39
2017-07-27T10:29:15.297Z,80.87
2017-07-27T10:30:15.998Z,81.12
2017-07-27T10:31:15.299Z,81.7
2017-07-27T10:32:15.312Z,81.6
2017-07-27T10:33:15.307Z,80.45
2017-07-27T10:34:15.321Z,80.87
2017-07-27T10:35:15.441Z,80.78
2017-07-27T10:36:15.327Z,79.72
2017-07-27T10:37:15.329Z,79.04
2017-07-27T10:38:15.335Z,78.41
2017-07-27T10:39:15.334Z,78.31
2017-07-27T10:40:16.040Z,78.11
2017-07-27T10:41:15.348Z,78.15
2017-07-27T10:42:15.360Z,77.57
2017-07-27T10:43:15.362Z,77.13
2017-07-27T10:44:15.363Z,76.16
2017-07-27T10:45:16.093Z,75.2
2017-07-27T10:46:15.372Z,75.1
2017-07-27T10:47:15.073Z,74.32
2017-07-27T10:48:15.379Z,73.07
2017-07-27T10:49:15.383Z,74.32
2017-07-27T10:50:15.531Z,73.59
2017-07-27T10:51:15.093Z,73.59
2017-07-27T10:52:15.398Z,73.49
2017-07-27T10:53:15.408Z,73.39
2017-07-27T10:54:15.410Z,73.53
2017-07-27T10:55:16.460Z,71.59
2017-07-27T10:56:15.425Z,71.5
2017-07-27T10:57:15.425Z,71.3
2017-07-27T10:58:15.431Z,71.59
2017-07-27T10:59:15.440Z,71.3
2017-07-27T11:00:16.007Z,71.69
2017-07-27T11:01:15.449Z,70.56
2017-07-27T11:02:15.455Z,70.86
2017-07-27T11:03:15.458Z,70.14
2017-07-27T11:04:15.170Z,70.76
2017-07-27T11:05:15.623Z,69.31
2017-07-27T11:06:15.477Z,70.62
2017-07-27T11:07:15.484Z,71.78
2017-07-27T11:08:15.198Z,71.59
2017-07-27T11:09:15.495Z,71.78
2017-07-27T11:10:16.713Z,71.01
2017-07-27T11:11:15.504Z,70.27
2017-07-27T11:12:15.515Z,69.69
2017-07-27T11:13:15.517Z,67.98
2017-07-27T11:14:15.528Z,67.98
2017-07-27T11:15:16.447Z,67.5
2017-07-27T11:16:15.539Z,67.69
2017-07-27T11:17:15.552Z,67.88
2017-07-27T11:18:15.245Z,68.18
2017-07-27T11:19:15.564Z,67.11
2017-07-27T11:20:15.692Z,67.21
2017-07-27T11:21:15.264Z,68.27
2017-07-27T11:22:15.586Z,68.76
2017-07-27T11:23:15.583Z,68.66
2017-07-27T11:24:15.583Z,68.91
2017-07-27T11:25:16.187Z,70.47
2017-07-27T11:26:15.594Z,69.31
2017-07-27T11:27:15.610Z,70.14
2017-07-27T11:28:15.612Z,69.37
2017-07-27T11:29:15.613Z,69.11
2017-07-27T11:30:15.778Z,69.95
2017-07-27T11:31:15.627Z,69.85
2017-07-27T11:32:15.628Z,71.4
2017-07-27T11:33:15.635Z,69.85
2017-07-27T11:34:15.640Z,68.59
2017-07-27T11:35:16.008Z,69.27
2017-07-27T11:36:15.650Z,70.34
2017-07-27T11:37:15.355Z,69.46
2017-07-27T11:38:15.358Z,68.79
2017-07-27T11:39:15.697Z,66.37
2017-07-27T11:40:16.705Z,63.95
2017-07-27T11:41:15.681Z,60.27
2017-07-27T11:42:15.389Z,60.98
2017-07-27T11:43:15.693Z,59.31
2017-07-27T11:44:15.707Z,59.05
2017-07-27T11:45:16.649Z,59.4
2017-07-27T11:46:15.713Z,61.05
2017-07-27T11:47:15.715Z,60.17
2017-07-27T11:48:15.721Z,58.82
2017-07-27T11:49:15.726Z,60.27
2017-07-27T11:50:15.944Z,59.69
2017-07-27T11:51:15.737Z,60.3
2017-07-27T11:52:16.159Z,58.65
2017-07-27T11:53:15.754Z,58.75
2017-07-27T11:54:15.772Z,57.79
2017-07-27T11:55:16.284Z,56.36
2017-07-27T11:56:15.765Z,56.65
2017-07-27T11:57:15.770Z,57.23
2017-07-27T11:58:15.475Z,57.62
2017-07-27T11:59:15.838Z,58.78
2017-07-27T12:00:16.563Z,57.81
2017-07-27T12:01:16.934Z,57.91
2017-07-27T12:02:17.905Z,58.39
2017-07-27T12:03:17.661Z,56.75
2017-07-27T12:04:15.820Z,57.53
2017-07-27T12:05:16.461Z,57.53
2017-07-27T12:06:15.829Z,57.91
2017-07-27T12:07:17.476Z,57.07
2017-07-27T12:08:15.830Z,56.77
2017-07-27T12:09:15.838Z,57.36
2017-07-27T12:10:15.996Z,56.39
2017-07-27T12:11:15.859Z,57.45
2017-07-27T12:12:15.550Z,57.91
2017-07-27T12:13:15.859Z,57.91
2017-07-27T12:14:15.865Z,58.2
2017-07-27T12:15:16.718Z,58.3
2017-07-27T12:16:15.885Z,58.39
2017-07-27T12:17:15.893Z,58.42
2017-07-27T12:18:15.895Z,58.04
2017-07-27T12:19:15.599Z,57.45
2017-07-27T12:20:16.777Z,57.55
2017-07-27T12:21:15.910Z,57.55
2017-07-27T12:22:17.120Z,58.14
2017-07-27T12:23:15.921Z,57.65
2017-07-27T12:24:15.925Z,57.07
2017-07-27T12:25:16.438Z,57.07
2017-07-27T12:26:15.929Z,57.45
2017-07-27T12:27:15.637Z,56.81
2017-07-27T12:28:15.642Z,56.81
2017-07-27T12:29:15.964Z,57.29
2017-07-27T12:30:16.711Z,56.23
2017-07-27T12:31:15.965Z,56.61
2017-07-27T12:32:15.966Z,55.74
2017-07-27T12:33:15.972Z,56.59
2017-07-27T12:34:15.980Z,56.87
2017-07-27T12:35:16.423Z,58.23
2017-07-27T12:36:15.991Z,59.46
2017-07-27T12:37:15.995Z,59.07
2017-07-27T12:38:16.146Z,58.69
2017-07-27T12:39:16.134Z,58.88
2017-07-27T12:40:15.978Z,58.3
2017-07-27T12:41:16.126Z,58.59
2017-07-27T12:42:16.025Z,58.78
2017-07-27T12:43:16.029Z,59.53
2017-07-27T12:44:16.036Z,60.59
2017-07-27T12:45:16.144Z,60.95
2017-07-27T12:46:16.051Z,61.63
2017-07-27T12:47:16.052Z,62.5
2017-07-27T12:48:16.058Z,62.18
2017-07-27T12:49:16.068Z,62.18
2017-07-27T12:50:17.095Z,63.14
2017-07-27T12:51:16.073Z,65.17
2017-07-27T12:52:16.079Z,65.17
2017-07-27T12:53:16.080Z,65.82
2017-07-27T12:54:16.084Z,64.85
2017-07-27T12:55:16.602Z,64.47